sensor_id;sensor_type;location;lat;lon;timestamp;P1;durP1;ratioP1;P2;durP2;ratioP2
28988;SDS011;16089;59.952;10.818;2024-03-02T00:00:14;22.70;;;10.00;;
28988;SDS011;16089;59.952;10.818;2024-03-02T00:02:40;23.45;;;10.07;;
28988;SDS011;16089;59.952;10.818;2024-03-02T00:05:08;26.27;;;10.05;;
28988;SDS011;16089;59.952;10.818;2024-03-02T00:07:37;24.58;;;10.90;;
28988;SDS011;16089;59.952;10.818;2024-03-02T00:10:04;24.25;;;9.85;;
28988;SDS011;16089;59.952;10.818;2024-03-02T00:12:34;27.23;;;12.25;;
28988;SDS011;16089;59.952;10.818;2024-03-02T00:15:00;24.05;;;10.45;;
28988;SDS011;16089;59.952;10.818;2024-03-02T00:17:27;28.70;;;11.50;;
28988;SDS011;16089;59.952;10.818;2024-03-02T00:19:55;28.50;;;11.15;;
28988;SDS011;16089;59.952;10.818;2024-03-02T00:22:22;25.77;;;10.55;;
28988;SDS011;16089;59.952;10.818;2024-03-02T00:24:49;26.73;;;10.65;;
28988;SDS011;16089;59.952;10.818;2024-03-02T00:27:15;25.95;;;10.93;;
28988;SDS011;16089;59.952;10.818;2024-03-02T00:29:44;25.08;;;10.57;;
28988;SDS011;16089;59.952;10.818;2024-03-02T00:32:11;24.83;;;10.73;;
28988;SDS011;16089;59.952;10.818;2024-03-02T00:34:38;18.92;;;8.35;;
28988;SDS011;16089;59.952;10.818;2024-03-02T00:37:05;17.73;;;7.55;;
28988;SDS011;16089;59.952;10.818;2024-03-02T00:39:33;19.77;;;7.95;;
28988;SDS011;16089;59.952;10.818;2024-03-02T00:41:59;19.35;;;8.20;;
28988;SDS011;16089;59.952;10.818;2024-03-02T00:44:26;15.07;;;7.40;;
28988;SDS011;16089;59.952;10.818;2024-03-02T00:46:55;19.00;;;8.07;;
28988;SDS011;16089;59.952;10.818;2024-03-02T00:49:22;16.92;;;7.80;;
28988;SDS011;16089;59.952;10.818;2024-03-02T00:51:49;15.38;;;6.95;;
28988;SDS011;16089;59.952;10.818;2024-03-02T00:54:18;14.18;;;7.05;;
28988;SDS011;16089;59.952;10.818;2024-03-02T00:56:46;13.20;;;6.68;;
28988;SDS011;16089;59.952;10.818;2024-03-02T00:59:13;13.35;;;6.47;;
28988;SDS011;16089;59.952;10.818;2024-03-02T01:01:40;13.30;;;6.43;;
28988;SDS011;16089;59.952;10.818;2024-03-02T01:04:07;12.05;;;5.88;;
28988;SDS011;16089;59.952;10.818;2024-03-02T01:06:34;15.20;;;6.63;;
28988;SDS011;16089;59.952;10.818;2024-03-02T01:09:00;12.73;;;5.60;;
28988;SDS011;16089;59.952;10.818;2024-03-02T01:11:28;8.15;;;4.00;;
28988;SDS011;16089;59.952;10.818;2024-03-02T01:13:56;7.20;;;3.67;;
28988;SDS011;16089;59.952;10.818;2024-03-02T01:16:23;6.63;;;3.03;;
28988;SDS011;16089;59.952;10.818;2024-03-02T01:18:49;6.80;;;3.28;;
28988;SDS011;16089;59.952;10.818;2024-03-02T01:21:16;7.95;;;3.53;;
28988;SDS011;16089;59.952;10.818;2024-03-02T01:23:43;7.82;;;3.42;;
28988;SDS011;16089;59.952;10.818;2024-03-02T01:26:09;8.13;;;3.30;;
28988;SDS011;16089;59.952;10.818;2024-03-02T01:28:36;7.93;;;3.72;;
28988;SDS011;16089;59.952;10.818;2024-03-02T01:31:03;5.57;;;2.95;;
28988;SDS011;16089;59.952;10.818;2024-03-02T01:33:30;5.90;;;2.88;;
28988;SDS011;16089;59.952;10.818;2024-03-02T01:35:56;5.80;;;2.85;;
28988;SDS011;16089;59.952;10.818;2024-03-02T01:38:23;8.73;;;3.25;;
28988;SDS011;16089;59.952;10.818;2024-03-02T01:40:49;6.35;;;3.10;;
28988;SDS011;16089;59.952;10.818;2024-03-02T01:43:16;6.65;;;2.85;;
28988;SDS011;16089;59.952;10.818;2024-03-02T01:45:43;6.35;;;3.08;;
28988;SDS011;16089;59.952;10.818;2024-03-02T01:48:11;6.07;;;2.80;;
28988;SDS011;16089;59.952;10.818;2024-03-02T01:50:37;6.22;;;3.05;;
28988;SDS011;16089;59.952;10.818;2024-03-02T01:53:04;6.10;;;3.20;;
28988;SDS011;16089;59.952;10.818;2024-03-02T01:55:30;7.13;;;3.70;;
28988;SDS011;16089;59.952;10.818;2024-03-02T01:57:58;7.82;;;3.42;;
28988;SDS011;16089;59.952;10.818;2024-03-02T02:00:24;8.55;;;3.60;;
28988;SDS011;16089;59.952;10.818;2024-03-02T02:02:51;9.98;;;4.32;;
28988;SDS011;16089;59.952;10.818;2024-03-02T02:05:19;8.77;;;3.65;;
28988;SDS011;16089;59.952;10.818;2024-03-02T02:07:46;7.32;;;3.70;;
28988;SDS011;16089;59.952;10.818;2024-03-02T02:10:12;9.55;;;3.67;;
28988;SDS011;16089;59.952;10.818;2024-03-02T02:12:39;8.93;;;3.90;;
28988;SDS011;16089;59.952;10.818;2024-03-02T02:17:46;6.55;;;3.25;;
28988;SDS011;16089;59.952;10.818;2024-03-02T02:20:13;8.65;;;3.58;;
28988;SDS011;16089;59.952;10.818;2024-03-02T02:22:41;10.00;;;3.50;;
28988;SDS011;16089;59.952;10.818;2024-03-02T02:25:18;7.85;;;3.50;;
28988;SDS011;16089;59.952;10.818;2024-03-02T02:27:45;7.55;;;3.58;;
28988;SDS011;16089;59.952;10.818;2024-03-02T02:30:11;9.15;;;3.63;;
28988;SDS011;16089;59.952;10.818;2024-03-02T02:32:38;6.93;;;3.33;;
28988;SDS011;16089;59.952;10.818;2024-03-02T02:35:05;8.95;;;3.55;;
28988;SDS011;16089;59.952;10.818;2024-03-02T02:37:31;5.88;;;3.15;;
28988;SDS011;16089;59.952;10.818;2024-03-02T02:39:59;7.72;;;3.30;;
28988;SDS011;16089;59.952;10.818;2024-03-02T02:42:26;8.30;;;3.40;;
28988;SDS011;16089;59.952;10.818;2024-03-02T02:44:52;9.68;;;4.15;;
28988;SDS011;16089;59.952;10.818;2024-03-02T02:47:19;7.25;;;3.28;;
28988;SDS011;16089;59.952;10.818;2024-03-02T02:49:45;7.00;;;3.47;;
28988;SDS011;16089;59.952;10.818;2024-03-02T02:52:12;7.53;;;3.38;;
28988;SDS011;16089;59.952;10.818;2024-03-02T02:54:38;7.57;;;3.33;;
28988;SDS011;16089;59.952;10.818;2024-03-02T02:57:06;5.30;;;2.60;;
28988;SDS011;16089;59.952;10.818;2024-03-02T02:59:33;6.47;;;3.10;;
28988;SDS011;16089;59.952;10.818;2024-03-02T03:01:59;6.18;;;3.03;;
28988;SDS011;16089;59.952;10.818;2024-03-02T03:04:25;7.82;;;3.65;;
28988;SDS011;16089;59.952;10.818;2024-03-02T03:06:52;6.25;;;3.15;;
28988;SDS011;16089;59.952;10.818;2024-03-02T03:09:18;7.18;;;3.08;;
28988;SDS011;16089;59.952;10.818;2024-03-02T03:11:45;6.90;;;3.00;;
28988;SDS011;16089;59.952;10.818;2024-03-02T03:14:13;8.77;;;3.55;;
28988;SDS011;16089;59.952;10.818;2024-03-02T03:16:40;8.77;;;3.65;;
28988;SDS011;16089;59.952;10.818;2024-03-02T03:19:06;7.68;;;3.50;;
28988;SDS011;16089;59.952;10.818;2024-03-02T03:21:32;8.60;;;3.65;;
28988;SDS011;16089;59.952;10.818;2024-03-02T03:23:59;9.00;;;4.15;;
28988;SDS011;16089;59.952;10.818;2024-03-02T03:26:25;10.30;;;3.85;;
28988;SDS011;16089;59.952;10.818;2024-03-02T03:28:52;6.70;;;3.40;;
28988;SDS011;16089;59.952;10.818;2024-03-02T03:31:19;9.45;;;3.88;;
28988;SDS011;16089;59.952;10.818;2024-03-02T03:33:46;11.02;;;5.07;;
28988;SDS011;16089;59.952;10.818;2024-03-02T03:36:12;8.15;;;3.78;;
28988;SDS011;16089;59.952;10.818;2024-03-02T03:38:39;10.50;;;4.32;;
28988;SDS011;16089;59.952;10.818;2024-03-02T03:41:05;10.25;;;4.38;;
28988;SDS011;16089;59.952;10.818;2024-03-02T03:43:32;10.13;;;4.75;;
28988;SDS011;16089;59.952;10.818;2024-03-02T03:45:58;10.43;;;4.30;;
28988;SDS011;16089;59.952;10.818;2024-03-02T03:48:26;11.23;;;4.70;;
28988;SDS011;16089;59.952;10.818;2024-03-02T03:50:55;10.60;;;4.53;;
28988;SDS011;16089;59.952;10.818;2024-03-02T03:53:22;11.13;;;4.63;;
28988;SDS011;16089;59.952;10.818;2024-03-02T03:55:49;13.52;;;4.65;;
28988;SDS011;16089;59.952;10.818;2024-03-02T03:58:15;10.00;;;4.00;;
28988;SDS011;16089;59.952;10.818;2024-03-02T04:00:43;10.75;;;4.85;;
28988;SDS011;16089;59.952;10.818;2024-03-02T04:03:10;10.15;;;4.47;;
28988;SDS011;16089;59.952;10.818;2024-03-02T04:05:38;10.45;;;4.60;;
28988;SDS011;16089;59.952;10.818;2024-03-02T04:08:04;11.43;;;4.53;;
28988;SDS011;16089;59.952;10.818;2024-03-02T04:10:31;10.68;;;4.63;;
28988;SDS011;16089;59.952;10.818;2024-03-02T04:13:00;16.20;;;4.80;;
28988;SDS011;16089;59.952;10.818;2024-03-02T04:15:26;13.20;;;5.40;;
28988;SDS011;16089;59.952;10.818;2024-03-02T04:17:53;15.38;;;5.05;;
28988;SDS011;16089;59.952;10.818;2024-03-02T04:20:20;17.05;;;5.78;;
28988;SDS011;16089;59.952;10.818;2024-03-02T04:22:48;16.38;;;5.63;;
28988;SDS011;16089;59.952;10.818;2024-03-02T04:25:14;14.90;;;5.20;;
28988;SDS011;16089;59.952;10.818;2024-03-02T04:27:41;15.60;;;5.70;;
28988;SDS011;16089;59.952;10.818;2024-03-02T04:30:07;18.02;;;6.03;;
28988;SDS011;16089;59.952;10.818;2024-03-02T04:32:34;19.33;;;6.03;;
28988;SDS011;16089;59.952;10.818;2024-03-02T04:35:01;17.02;;;6.13;;
28988;SDS011;16089;59.952;10.818;2024-03-02T04:37:27;19.60;;;7.60;;
28988;SDS011;16089;59.952;10.818;2024-03-02T04:39:55;15.70;;;6.13;;
28988;SDS011;16089;59.952;10.818;2024-03-02T04:42:22;19.80;;;6.45;;
28988;SDS011;16089;59.952;10.818;2024-03-02T04:44:48;18.23;;;6.57;;
28988;SDS011;16089;59.952;10.818;2024-03-02T04:47:15;16.08;;;6.70;;
28988;SDS011;16089;59.952;10.818;2024-03-02T04:49:41;16.77;;;5.97;;
28988;SDS011;16089;59.952;10.818;2024-03-02T04:52:08;15.95;;;6.13;;
28988;SDS011;16089;59.952;10.818;2024-03-02T04:54:35;15.38;;;6.65;;
28988;SDS011;16089;59.952;10.818;2024-03-02T04:57:23;13.88;;;5.68;;
28988;SDS011;16089;59.952;10.818;2024-03-02T04:59:49;12.75;;;5.68;;
28988;SDS011;16089;59.952;10.818;2024-03-02T05:02:16;13.75;;;5.28;;
28988;SDS011;16089;59.952;10.818;2024-03-02T05:04:42;15.10;;;5.70;;
28988;SDS011;16089;59.952;10.818;2024-03-02T05:07:08;11.60;;;5.47;;
28988;SDS011;16089;59.952;10.818;2024-03-02T05:09:35;15.77;;;6.35;;
28988;SDS011;16089;59.952;10.818;2024-03-02T05:12:01;17.27;;;6.93;;
28988;SDS011;16089;59.952;10.818;2024-03-02T05:14:49;14.88;;;6.25;;
28988;SDS011;16089;59.952;10.818;2024-03-02T05:17:15;16.55;;;6.70;;
28988;SDS011;16089;59.952;10.818;2024-03-02T05:19:42;17.55;;;6.88;;
28988;SDS011;16089;59.952;10.818;2024-03-02T05:22:08;18.83;;;7.30;;
28988;SDS011;16089;59.952;10.818;2024-03-02T05:24:35;17.58;;;6.65;;
28988;SDS011;16089;59.952;10.818;2024-03-02T05:27:02;17.42;;;7.32;;
28988;SDS011;16089;59.952;10.818;2024-03-02T05:29:28;21.88;;;7.05;;
28988;SDS011;16089;59.952;10.818;2024-03-02T05:31:56;19.90;;;7.57;;
28988;SDS011;16089;59.952;10.818;2024-03-02T05:34:23;21.25;;;7.53;;
28988;SDS011;16089;59.952;10.818;2024-03-02T05:36:49;19.73;;;7.97;;
28988;SDS011;16089;59.952;10.818;2024-03-02T05:39:16;19.05;;;7.63;;
28988;SDS011;16089;59.952;10.818;2024-03-02T05:41:42;22.88;;;8.57;;
28988;SDS011;16089;59.952;10.818;2024-03-02T05:44:09;22.90;;;7.40;;
28988;SDS011;16089;59.952;10.818;2024-03-02T05:46:35;19.73;;;7.82;;
28988;SDS011;16089;59.952;10.818;2024-03-02T05:49:03;19.70;;;8.65;;
28988;SDS011;16089;59.952;10.818;2024-03-02T05:51:29;22.70;;;8.30;;
28988;SDS011;16089;59.952;10.818;2024-03-02T05:53:56;21.95;;;8.02;;
28988;SDS011;16089;59.952;10.818;2024-03-02T05:56:22;19.60;;;7.60;;
28988;SDS011;16089;59.952;10.818;2024-03-02T05:58:49;16.58;;;7.15;;
28988;SDS011;16089;59.952;10.818;2024-03-02T06:01:26;19.25;;;7.30;;
28988;SDS011;16089;59.952;10.818;2024-03-02T06:03:53;18.67;;;8.00;;
28988;SDS011;16089;59.952;10.818;2024-03-02T06:06:21;18.83;;;7.78;;
28988;SDS011;16089;59.952;10.818;2024-03-02T06:08:48;16.85;;;6.28;;
28988;SDS011;16089;59.952;10.818;2024-03-02T06:11:14;15.65;;;6.43;;
28988;SDS011;16089;59.952;10.818;2024-03-02T06:13:40;16.40;;;6.80;;
28988;SDS011;16089;59.952;10.818;2024-03-02T06:16:07;18.02;;;6.82;;
28988;SDS011;16089;59.952;10.818;2024-03-02T06:18:34;17.80;;;7.40;;
28988;SDS011;16089;59.952;10.818;2024-03-02T06:21:01;16.95;;;7.07;;
28988;SDS011;16089;59.952;10.818;2024-03-02T06:23:28;15.25;;;6.30;;
28988;SDS011;16089;59.952;10.818;2024-03-02T06:25:55;10.77;;;5.68;;
28988;SDS011;16089;59.952;10.818;2024-03-02T06:28:21;14.00;;;6.00;;
28988;SDS011;16089;59.952;10.818;2024-03-02T06:30:48;12.63;;;5.35;;
28988;SDS011;16089;59.952;10.818;2024-03-02T06:33:14;13.20;;;5.25;;
28988;SDS011;16089;59.952;10.818;2024-03-02T06:35:41;13.77;;;5.78;;
28988;SDS011;16089;59.952;10.818;2024-03-02T06:38:08;15.05;;;4.88;;
28988;SDS011;16089;59.952;10.818;2024-03-02T06:40:36;12.07;;;4.90;;
28988;SDS011;16089;59.952;10.818;2024-03-02T06:43:04;12.20;;;5.03;;
28988;SDS011;16089;59.952;10.818;2024-03-02T06:45:31;12.02;;;4.80;;
28988;SDS011;16089;59.952;10.818;2024-03-02T06:47:59;10.50;;;4.72;;
28988;SDS011;16089;59.952;10.818;2024-03-02T06:50:26;11.30;;;5.07;;
28988;SDS011;16089;59.952;10.818;2024-03-02T06:52:52;10.82;;;5.28;;
28988;SDS011;16089;59.952;10.818;2024-03-02T06:55:18;13.73;;;5.25;;
28988;SDS011;16089;59.952;10.818;2024-03-02T06:57:46;10.55;;;4.63;;
28988;SDS011;16089;59.952;10.818;2024-03-02T07:00:13;11.52;;;4.75;;
28988;SDS011;16089;59.952;10.818;2024-03-02T07:02:40;11.05;;;5.00;;
28988;SDS011;16089;59.952;10.818;2024-03-02T07:05:06;9.77;;;4.20;;
28988;SDS011;16089;59.952;10.818;2024-03-02T07:07:33;10.00;;;4.90;;
28988;SDS011;16089;59.952;10.818;2024-03-02T07:10:00;10.00;;;5.00;;
28988;SDS011;16089;59.952;10.818;2024-03-02T07:12:26;10.68;;;4.50;;
28988;SDS011;16089;59.952;10.818;2024-03-02T07:14:54;7.78;;;4.10;;
28988;SDS011;16089;59.952;10.818;2024-03-02T07:17:36;10.35;;;4.90;;
28988;SDS011;16089;59.952;10.818;2024-03-02T07:20:03;10.55;;;4.63;;
28988;SDS011;16089;59.952;10.818;2024-03-02T07:22:29;10.75;;;4.85;;
28988;SDS011;16089;59.952;10.818;2024-03-02T07:24:56;9.65;;;4.40;;
28988;SDS011;16089;59.952;10.818;2024-03-02T07:27:22;10.57;;;4.70;;
28988;SDS011;16089;59.952;10.818;2024-03-02T07:29:49;8.48;;;4.15;;
28988;SDS011;16089;59.952;10.818;2024-03-02T07:32:17;10.18;;;5.43;;
28988;SDS011;16089;59.952;10.818;2024-03-02T07:34:43;8.23;;;4.13;;
28988;SDS011;16089;59.952;10.818;2024-03-02T07:37:10;8.07;;;4.00;;
28988;SDS011;16089;59.952;10.818;2024-03-02T07:39:36;10.23;;;4.10;;
28988;SDS011;16089;59.952;10.818;2024-03-02T07:42:04;10.13;;;4.55;;
28988;SDS011;16089;59.952;10.818;2024-03-02T07:44:31;9.13;;;4.30;;
28988;SDS011;16089;59.952;10.818;2024-03-02T07:46:58;10.30;;;4.63;;
28988;SDS011;16089;59.952;10.818;2024-03-02T07:49:25;10.77;;;4.50;;
28988;SDS011;16089;59.952;10.818;2024-03-02T07:51:52;8.80;;;4.43;;
28988;SDS011;16089;59.952;10.818;2024-03-02T07:54:18;14.27;;;4.93;;
28988;SDS011;16089;59.952;10.818;2024-03-02T07:56:45;10.63;;;4.85;;
28988;SDS011;16089;59.952;10.818;2024-03-02T07:59:12;13.82;;;4.90;;
28988;SDS011;16089;59.952;10.818;2024-03-02T08:01:38;10.73;;;4.90;;
28988;SDS011;16089;59.952;10.818;2024-03-02T08:04:05;14.95;;;4.72;;
28988;SDS011;16089;59.952;10.818;2024-03-02T08:06:34;12.00;;;5.13;;
28988;SDS011;16089;59.952;10.818;2024-03-02T08:09:00;11.00;;;5.00;;
28988;SDS011;16089;59.952;10.818;2024-03-02T08:11:27;10.68;;;4.63;;
28988;SDS011;16089;59.952;10.818;2024-03-02T08:13:54;12.55;;;5.18;;
28988;SDS011;16089;59.952;10.818;2024-03-02T08:16:20;13.75;;;5.05;;
28988;SDS011;16089;59.952;10.818;2024-03-02T08:18:47;11.63;;;5.10;;
28988;SDS011;16089;59.952;10.818;2024-03-02T08:21:13;10.98;;;4.80;;
28988;SDS011;16089;59.952;10.818;2024-03-02T08:23:42;11.75;;;5.18;;
28988;SDS011;16089;59.952;10.818;2024-03-02T08:26:08;10.57;;;5.10;;
28988;SDS011;16089;59.952;10.818;2024-03-02T08:28:35;10.10;;;4.45;;
28988;SDS011;16089;59.952;10.818;2024-03-02T08:31:02;10.52;;;5.10;;
28988;SDS011;16089;59.952;10.818;2024-03-02T08:33:29;8.23;;;4.30;;
28988;SDS011;16089;59.952;10.818;2024-03-02T08:35:56;8.52;;;4.28;;
28988;SDS011;16089;59.952;10.818;2024-03-02T08:38:22;9.48;;;4.88;;
28988;SDS011;16089;59.952;10.818;2024-03-02T08:40:50;10.05;;;4.72;;
28988;SDS011;16089;59.952;10.818;2024-03-02T08:43:17;9.57;;;4.50;;
28988;SDS011;16089;59.952;10.818;2024-03-02T08:45:44;10.48;;;5.18;;
28988;SDS011;16089;59.952;10.818;2024-03-02T08:51:00;8.88;;;4.43;;
28988;SDS011;16089;59.952;10.818;2024-03-02T08:53:29;10.50;;;5.35;;
28988;SDS011;16089;59.952;10.818;2024-03-02T08:55:57;10.38;;;5.13;;
28988;SDS011;16089;59.952;10.818;2024-03-02T08:58:24;10.23;;;5.03;;
28988;SDS011;16089;59.952;10.818;2024-03-02T09:00:50;11.48;;;4.60;;
28988;SDS011;16089;59.952;10.818;2024-03-02T09:03:17;10.48;;;4.90;;
28988;SDS011;16089;59.952;10.818;2024-03-02T09:05:43;10.90;;;5.20;;
28988;SDS011;16089;59.952;10.818;2024-03-02T09:08:10;10.02;;;4.93;;
28988;SDS011;16089;59.952;10.818;2024-03-02T09:10:36;10.93;;;4.90;;
28988;SDS011;16089;59.952;10.818;2024-03-02T09:13:05;11.32;;;5.65;;
28988;SDS011;16089;59.952;10.818;2024-03-02T09:15:31;12.38;;;5.88;;
28988;SDS011;16089;59.952;10.818;2024-03-02T09:17:58;12.45;;;6.03;;
28988;SDS011;16089;59.952;10.818;2024-03-02T09:20:24;12.32;;;6.15;;
28988;SDS011;16089;59.952;10.818;2024-03-02T09:22:51;11.85;;;5.80;;
28988;SDS011;16089;59.952;10.818;2024-03-02T09:25:17;12.30;;;5.95;;
28988;SDS011;16089;59.952;10.818;2024-03-02T09:27:44;12.20;;;6.22;;
28988;SDS011;16089;59.952;10.818;2024-03-02T09:30:12;10.23;;;5.43;;
28988;SDS011;16089;59.952;10.818;2024-03-02T09:32:39;10.75;;;5.53;;
28988;SDS011;16089;59.952;10.818;2024-03-02T09:35:06;13.68;;;6.80;;
28988;SDS011;16089;59.952;10.818;2024-03-02T09:37:33;12.50;;;5.90;;
28988;SDS011;16089;59.952;10.818;2024-03-02T09:39:59;12.15;;;6.07;;
28988;SDS011;16089;59.952;10.818;2024-03-02T09:42:25;10.00;;;5.40;;
28988;SDS011;16089;59.952;10.818;2024-03-02T09:44:52;9.75;;;5.53;;
28988;SDS011;16089;59.952;10.818;2024-03-02T09:47:20;11.95;;;6.30;;
28988;SDS011;16089;59.952;10.818;2024-03-02T09:49:47;10.40;;;5.95;;
28988;SDS011;16089;59.952;10.818;2024-03-02T09:52:13;9.70;;;5.70;;
28988;SDS011;16089;59.952;10.818;2024-03-02T09:54:41;9.95;;;5.50;;
28988;SDS011;16089;59.952;10.818;2024-03-02T09:57:07;9.85;;;5.85;;
28988;SDS011;16089;59.952;10.818;2024-03-02T09:59:34;10.98;;;6.00;;
28988;SDS011;16089;59.952;10.818;2024-03-02T10:02:01;9.35;;;5.50;;
28988;SDS011;16089;59.952;10.818;2024-03-02T10:04:29;10.38;;;5.78;;
28988;SDS011;16089;59.952;10.818;2024-03-02T10:07:09;10.68;;;5.72;;
28988;SDS011;16089;59.952;10.818;2024-03-02T10:09:36;9.80;;;5.78;;
28988;SDS011;16089;59.952;10.818;2024-03-02T10:12:03;9.95;;;6.00;;
28988;SDS011;16089;59.952;10.818;2024-03-02T10:14:30;9.95;;;5.50;;
28988;SDS011;16089;59.952;10.818;2024-03-02T10:17:00;9.18;;;4.95;;
28988;SDS011;16089;59.952;10.818;2024-03-02T10:19:28;10.23;;;5.43;;
28988;SDS011;16089;59.952;10.818;2024-03-02T10:21:59;10.52;;;5.72;;
28988;SDS011;16089;59.952;10.818;2024-03-02T10:24:25;11.02;;;5.63;;
28988;SDS011;16089;59.952;10.818;2024-03-02T10:26:52;10.50;;;5.75;;
28988;SDS011;16089;59.952;10.818;2024-03-02T10:29:19;10.07;;;5.72;;
28988;SDS011;16089;59.952;10.818;2024-03-02T10:31:46;10.57;;;5.22;;
28988;SDS011;16089;59.952;10.818;2024-03-02T10:34:12;11.30;;;5.55;;
28988;SDS011;16089;59.952;10.818;2024-03-02T10:36:40;11.77;;;6.40;;
28988;SDS011;16089;59.952;10.818;2024-03-02T10:39:08;11.75;;;5.78;;
28988;SDS011;16089;59.952;10.818;2024-03-02T10:41:35;13.95;;;6.10;;
28988;SDS011;16089;59.952;10.818;2024-03-02T10:44:02;12.48;;;5.95;;
28988;SDS011;16089;59.952;10.818;2024-03-02T10:46:29;10.73;;;5.60;;
28988;SDS011;16089;59.952;10.818;2024-03-02T10:48:56;10.02;;;5.28;;
28988;SDS011;16089;59.952;10.818;2024-03-02T10:51:24;9.50;;;5.05;;
28988;SDS011;16089;59.952;10.818;2024-03-02T10:53:50;10.27;;;5.78;;
28988;SDS011;16089;59.952;10.818;2024-03-02T10:56:20;8.98;;;4.75;;
28988;SDS011;16089;59.952;10.818;2024-03-02T10:58:49;8.95;;;5.00;;
28988;SDS011;16089;59.952;10.818;2024-03-02T11:01:17;9.52;;;5.13;;
28988;SDS011;16089;59.952;10.818;2024-03-02T11:03:44;8.50;;;4.72;;
28988;SDS011;16089;59.952;10.818;2024-03-02T11:06:11;9.90;;;5.13;;
28988;SDS011;16089;59.952;10.818;2024-03-02T11:08:38;9.15;;;4.88;;
28988;SDS011;16089;59.952;10.818;2024-03-02T11:11:06;9.60;;;5.07;;
28988;SDS011;16089;59.952;10.818;2024-03-02T11:13:35;9.60;;;5.35;;
28988;SDS011;16089;59.952;10.818;2024-03-02T11:16:03;9.52;;;5.50;;
28988;SDS011;16089;59.952;10.818;2024-03-02T11:18:30;9.32;;;5.43;;
28988;SDS011;16089;59.952;10.818;2024-03-02T11:20:57;10.98;;;5.70;;
28988;SDS011;16089;59.952;10.818;2024-03-02T11:23:31;11.00;;;4.93;;
28988;SDS011;16089;59.952;10.818;2024-03-02T11:28:40;11.98;;;5.93;;
28988;SDS011;16089;59.952;10.818;2024-03-02T11:31:08;9.70;;;5.43;;
28988;SDS011;16089;59.952;10.818;2024-03-02T11:33:34;13.75;;;6.18;;
28988;SDS011;16089;59.952;10.818;2024-03-02T11:36:00;10.05;;;5.30;;
28988;SDS011;16089;59.952;10.818;2024-03-02T11:38:27;13.70;;;6.28;;
28988;SDS011;16089;59.952;10.818;2024-03-02T11:40:54;11.27;;;5.85;;
28988;SDS011;16089;59.952;10.818;2024-03-02T11:43:20;14.20;;;6.78;;
28988;SDS011;16089;59.952;10.818;2024-03-02T11:45:49;13.55;;;6.88;;
28988;SDS011;16089;59.952;10.818;2024-03-02T11:48:22;14.07;;;7.03;;
28988;SDS011;16089;59.952;10.818;2024-03-02T11:50:51;20.45;;;7.25;;
28988;SDS011;16089;59.952;10.818;2024-03-02T11:53:19;16.52;;;7.47;;
28988;SDS011;16089;59.952;10.818;2024-03-02T11:55:46;17.55;;;8.25;;
28988;SDS011;16089;59.952;10.818;2024-03-02T11:58:14;19.83;;;7.90;;
28988;SDS011;16089;59.952;10.818;2024-03-02T12:00:40;16.60;;;7.25;;
28988;SDS011;16089;59.952;10.818;2024-03-02T12:03:09;14.98;;;7.03;;
28988;SDS011;16089;59.952;10.818;2024-03-02T12:05:37;19.08;;;8.02;;
28988;SDS011;16089;59.952;10.818;2024-03-02T12:08:06;20.80;;;7.55;;
28988;SDS011;16089;59.952;10.818;2024-03-02T12:10:33;19.10;;;7.78;;
28988;SDS011;16089;59.952;10.818;2024-03-02T12:13:00;16.77;;;8.40;;
28988;SDS011;16089;59.952;10.818;2024-03-02T12:15:28;18.00;;;7.35;;
28988;SDS011;16089;59.952;10.818;2024-03-02T12:17:59;17.10;;;8.13;;
28988;SDS011;16089;59.952;10.818;2024-03-02T12:20:27;14.73;;;6.85;;
28988;SDS011;16089;59.952;10.818;2024-03-02T12:22:55;14.57;;;6.38;;
28988;SDS011;16089;59.952;10.818;2024-03-02T12:25:22;13.70;;;6.38;;
28988;SDS011;16089;59.952;10.818;2024-03-02T12:27:49;11.38;;;5.55;;
28988;SDS011;16089;59.952;10.818;2024-03-02T12:30:16;12.23;;;6.07;;
28988;SDS011;16089;59.952;10.818;2024-03-02T12:32:42;13.88;;;6.15;;
28988;SDS011;16089;59.952;10.818;2024-03-02T12:35:10;11.65;;;5.68;;
28988;SDS011;16089;59.952;10.818;2024-03-02T12:37:44;11.20;;;5.15;;
28988;SDS011;16089;59.952;10.818;2024-03-02T12:40:11;14.48;;;5.30;;
28988;SDS011;16089;59.952;10.818;2024-03-02T12:42:38;10.27;;;5.38;;
28988;SDS011;16089;59.952;10.818;2024-03-02T12:45:05;11.82;;;5.45;;
28988;SDS011;16089;59.952;10.818;2024-03-02T12:47:32;10.30;;;5.05;;
28988;SDS011;16089;59.952;10.818;2024-03-02T12:49:59;11.18;;;5.13;;
28988;SDS011;16089;59.952;10.818;2024-03-02T12:52:25;10.40;;;4.60;;
28988;SDS011;16089;59.952;10.818;2024-03-02T12:54:54;8.68;;;4.43;;
28988;SDS011;16089;59.952;10.818;2024-03-02T12:57:24;9.40;;;5.03;;
28988;SDS011;16089;59.952;10.818;2024-03-02T12:59:51;10.70;;;4.53;;
28988;SDS011;16089;59.952;10.818;2024-03-02T13:02:18;9.05;;;4.85;;
28988;SDS011;16089;59.952;10.818;2024-03-02T13:04:44;9.48;;;4.35;;
28988;SDS011;16089;59.952;10.818;2024-03-02T13:07:10;9.93;;;4.68;;
28988;SDS011;16089;59.952;10.818;2024-03-02T13:09:38;8.20;;;4.35;;
28988;SDS011;16089;59.952;10.818;2024-03-02T13:12:06;9.80;;;5.13;;
28988;SDS011;16089;59.952;10.818;2024-03-02T13:14:33;8.55;;;4.72;;
28988;SDS011;16089;59.952;10.818;2024-03-02T13:17:01;8.52;;;3.92;;
28988;SDS011;16089;59.952;10.818;2024-03-02T13:19:29;9.30;;;4.72;;
28988;SDS011;16089;59.952;10.818;2024-03-02T13:21:56;9.18;;;4.10;;
28988;SDS011;16089;59.952;10.818;2024-03-02T13:24:23;7.63;;;3.60;;
28988;SDS011;16089;59.952;10.818;2024-03-02T13:26:53;8.10;;;3.90;;
28988;SDS011;16089;59.952;10.818;2024-03-02T13:29:24;5.38;;;2.90;;
28988;SDS011;16089;59.952;10.818;2024-03-02T13:31:54;7.05;;;3.45;;
28988;SDS011;16089;59.952;10.818;2024-03-02T13:34:20;6.80;;;3.55;;
28988;SDS011;16089;59.952;10.818;2024-03-02T13:36:47;8.05;;;3.60;;
28988;SDS011;16089;59.952;10.818;2024-03-02T13:39:13;6.55;;;3.40;;
28988;SDS011;16089;59.952;10.818;2024-03-02T13:41:43;7.28;;;3.30;;
28988;SDS011;16089;59.952;10.818;2024-03-02T13:44:17;6.85;;;3.55;;
28988;SDS011;16089;59.952;10.818;2024-03-02T13:46:45;7.05;;;3.60;;
28988;SDS011;16089;59.952;10.818;2024-03-02T13:49:17;7.40;;;3.70;;
28988;SDS011;16089;59.952;10.818;2024-03-02T13:51:43;7.50;;;3.65;;
28988;SDS011;16089;59.952;10.818;2024-03-02T13:54:10;6.90;;;3.83;;
28988;SDS011;16089;59.952;10.818;2024-03-02T13:56:37;7.22;;;3.35;;
28988;SDS011;16089;59.952;10.818;2024-03-02T13:59:04;7.28;;;3.85;;
28988;SDS011;16089;59.952;10.818;2024-03-02T14:01:31;7.15;;;3.47;;
28988;SDS011;16089;59.952;10.818;2024-03-02T14:03:59;5.82;;;3.35;;
28988;SDS011;16089;59.952;10.818;2024-03-02T14:06:28;8.10;;;3.70;;
28988;SDS011;16089;59.952;10.818;2024-03-02T14:08:54;6.53;;;3.60;;
28988;SDS011;16089;59.952;10.818;2024-03-02T14:11:21;6.93;;;3.75;;
28988;SDS011;16089;59.952;10.818;2024-03-02T14:13:47;7.10;;;3.65;;
28988;SDS011;16089;59.952;10.818;2024-03-02T14:16:25;6.85;;;3.50;;
28988;SDS011;16089;59.952;10.818;2024-03-02T14:18:55;6.55;;;3.53;;
28988;SDS011;16089;59.952;10.818;2024-03-02T14:21:23;6.45;;;3.55;;
28988;SDS011;16089;59.952;10.818;2024-03-02T14:23:50;6.88;;;3.17;;
28988;SDS011;16089;59.952;10.818;2024-03-02T14:26:16;6.93;;;3.20;;
28988;SDS011;16089;59.952;10.818;2024-03-02T14:28:43;5.40;;;3.05;;
28988;SDS011;16089;59.952;10.818;2024-03-02T14:31:09;6.85;;;3.40;;
28988;SDS011;16089;59.952;10.818;2024-03-02T14:33:36;6.80;;;3.20;;